sensor_id;sensor_type;location;lat;lon;timestamp;pressure;altitude;pressure_sealevel;temperature
13570;BMP180;6856;51.460;7.158;2022-12-16T00:00:00;99687.00;;;-1.70
13570;BMP180;6856;51.460;7.158;2022-12-16T00:02:35;99686.00;;;-1.70
13570;BMP180;6856;51.460;7.158;2022-12-16T00:05:09;99671.00;;;-1.80
13570;BMP180;6856;51.460;7.158;2022-12-16T00:07:44;99691.00;;;-1.80
13570;BMP180;6856;51.460;7.158;2022-12-16T00:10:18;99693.00;;;-1.80
13570;BMP180;6856;51.460;7.158;2022-12-16T00:12:52;99701.00;;;-1.80
13570;BMP180;6856;51.460;7.158;2022-12-16T00:15:26;99693.00;;;-1.80
13570;BMP180;6856;51.460;7.158;2022-12-16T00:18:00;99713.00;;;-1.90
13570;BMP180;6856;51.460;7.158;2022-12-16T00:20:34;99693.00;;;-1.90
13570;BMP180;6856;51.460;7.158;2022-12-16T00:23:09;99691.00;;;-1.90
13570;BMP180;6856;51.460;7.158;2022-12-16T00:25:45;99692.00;;;-1.90
13570;BMP180;6856;51.460;7.158;2022-12-16T00:28:20;99685.00;;;-1.90
13570;BMP180;6856;51.460;7.158;2022-12-16T00:30:56;99685.00;;;-1.90
13570;BMP180;6856;51.460;7.158;2022-12-16T00:33:30;99688.00;;;-2.00
13570;BMP180;6856;51.460;7.158;2022-12-16T00:36:06;99703.00;;;-2.00
13570;BMP180;6856;51.460;7.158;2022-12-16T00:38:43;99702.00;;;-2.00
13570;BMP180;6856;51.460;7.158;2022-12-16T00:41:16;99693.00;;;-2.00
13570;BMP180;6856;51.460;7.158;2022-12-16T00:43:50;99706.00;;;-2.10
13570;BMP180;6856;51.460;7.158;2022-12-16T00:46:24;99687.00;;;-2.10
13570;BMP180;6856;51.460;7.158;2022-12-16T00:48:58;99708.00;;;-2.10
13570;BMP180;6856;51.460;7.158;2022-12-16T00:51:31;99680.00;;;-2.10
13570;BMP180;6856;51.460;7.158;2022-12-16T00:54:07;99688.00;;;-2.10
13570;BMP180;6856;51.460;7.158;2022-12-16T00:56:40;99696.00;;;-2.10
13570;BMP180;6856;51.460;7.158;2022-12-16T00:59:14;99681.00;;;-2.20
13570;BMP180;6856;51.460;7.158;2022-12-16T01:01:49;99686.00;;;-2.20
13570;BMP180;6856;51.460;7.158;2022-12-16T01:04:23;99692.00;;;-2.20
13570;BMP180;6856;51.460;7.158;2022-12-16T01:06:58;99668.00;;;-2.20
13570;BMP180;6856;51.460;7.158;2022-12-16T01:09:33;99687.00;;;-2.20
13570;BMP180;6856;51.460;7.158;2022-12-16T01:12:07;99690.00;;;-2.20
13570;BMP180;6856;51.460;7.158;2022-12-16T01:14:41;99673.00;;;-2.30
13570;BMP180;6856;51.460;7.158;2022-12-16T01:17:15;99698.00;;;-2.30
13570;BMP180;6856;51.460;7.158;2022-12-16T01:19:49;99698.00;;;-2.30
13570;BMP180;6856;51.460;7.158;2022-12-16T01:22:24;99703.00;;;-2.30
13570;BMP180;6856;51.460;7.158;2022-12-16T01:25:02;99708.00;;;-2.30
13570;BMP180;6856;51.460;7.158;2022-12-16T01:27:36;99692.00;;;-2.40
13570;BMP180;6856;51.460;7.158;2022-12-16T01:30:11;99719.00;;;-2.40
13570;BMP180;6856;51.460;7.158;2022-12-16T01:32:45;99715.00;;;-2.40
13570;BMP180;6856;51.460;7.158;2022-12-16T01:35:19;99695.00;;;-2.40
13570;BMP180;6856;51.460;7.158;2022-12-16T01:38:13;99702.00;;;-2.40
13570;BMP180;6856;51.460;7.158;2022-12-16T01:40:48;99726.00;;;-2.40
13570;BMP180;6856;51.460;7.158;2022-12-16T01:43:25;99730.00;;;-2.40
13570;BMP180;6856;51.460;7.158;2022-12-16T01:46:06;99699.00;;;-2.50
13570;BMP180;6856;51.460;7.158;2022-12-16T01:48:46;99726.00;;;-2.50
13570;BMP180;6856;51.460;7.158;2022-12-16T01:51:26;99715.00;;;-2.50
13570;BMP180;6856;51.460;7.158;2022-12-16T01:54:08;99738.00;;;-2.60
13570;BMP180;6856;51.460;7.158;2022-12-16T01:56:48;99744.00;;;-2.60
13570;BMP180;6856;51.460;7.158;2022-12-16T01:59:28;99739.00;;;-2.60
13570;BMP180;6856;51.460;7.158;2022-12-16T02:02:05;99735.00;;;-2.60
13570;BMP180;6856;51.460;7.158;2022-12-16T02:04:40;99735.00;;;-2.60
13570;BMP180;6856;51.460;7.158;2022-12-16T02:07:36;99709.00;;;-2.60
13570;BMP180;6856;51.460;7.158;2022-12-16T02:10:10;99715.00;;;-2.60
13570;BMP180;6856;51.460;7.158;2022-12-16T02:12:58;99731.00;;;-2.70
13570;BMP180;6856;51.460;7.158;2022-12-16T02:15:45;99725.00;;;-2.70
13570;BMP180;6856;51.460;7.158;2022-12-16T02:18:40;99735.00;;;-2.70
13570;BMP180;6856;51.460;7.158;2022-12-16T02:21:44;99735.00;;;-2.70
13570;BMP180;6856;51.460;7.158;2022-12-16T02:25:01;99722.00;;;-2.70
13570;BMP180;6856;51.460;7.158;2022-12-16T02:28:00;99737.00;;;-2.80
13570;BMP180;6856;51.460;7.158;2022-12-16T02:31:18;99737.00;;;-2.80
13570;BMP180;6856;51.460;7.158;2022-12-16T02:34:14;99741.00;;;-2.80
13570;BMP180;6856;51.460;7.158;2022-12-16T02:37:04;99737.00;;;-2.80
13570;BMP180;6856;51.460;7.158;2022-12-16T02:39:48;99736.00;;;-2.80
13570;BMP180;6856;51.460;7.158;2022-12-16T02:42:30;99726.00;;;-2.90
13570;BMP180;6856;51.460;7.158;2022-12-16T02:45:11;99742.00;;;-2.90
13570;BMP180;6856;51.460;7.158;2022-12-16T02:47:49;99734.00;;;-2.90
13570;BMP180;6856;51.460;7.158;2022-12-16T02:50:31;99737.00;;;-2.90
13570;BMP180;6856;51.460;7.158;2022-12-16T02:53:07;99736.00;;;-2.90
13570;BMP180;6856;51.460;7.158;2022-12-16T02:55:57;99736.00;;;-2.90
13570;BMP180;6856;51.460;7.158;2022-12-16T02:58:40;99743.00;;;-3.00
13570;BMP180;6856;51.460;7.158;2022-12-16T03:01:30;99736.00;;;-3.00
13570;BMP180;6856;51.460;7.158;2022-12-16T03:04:15;99747.00;;;-3.00
13570;BMP180;6856;51.460;7.158;2022-12-16T03:06:53;99748.00;;;-3.00
13570;BMP180;6856;51.460;7.158;2022-12-16T03:09:33;99759.00;;;-3.00
13570;BMP180;6856;51.460;7.158;2022-12-16T03:12:12;99742.00;;;-3.00
13570;BMP180;6856;51.460;7.158;2022-12-16T03:14:51;99752.00;;;-3.00
13570;BMP180;6856;51.460;7.158;2022-12-16T03:17:29;99748.00;;;-3.00
13570;BMP180;6856;51.460;7.158;2022-12-16T03:20:11;99741.00;;;-3.10
13570;BMP180;6856;51.460;7.158;2022-12-16T03:22:51;99723.00;;;-3.00
13570;BMP180;6856;51.460;7.158;2022-12-16T03:25:28;99755.00;;;-3.10
13570;BMP180;6856;51.460;7.158;2022-12-16T03:28:22;99759.00;;;-3.10
13570;BMP180;6856;51.460;7.158;2022-12-16T03:31:13;99752.00;;;-3.10
13570;BMP180;6856;51.460;7.158;2022-12-16T03:33:55;99762.00;;;-3.10
13570;BMP180;6856;51.460;7.158;2022-12-16T03:36:37;99734.00;;;-3.10
13570;BMP180;6856;51.460;7.158;2022-12-16T03:39:12;99754.00;;;-3.10
13570;BMP180;6856;51.460;7.158;2022-12-16T03:41:50;99760.00;;;-3.10
13570;BMP180;6856;51.460;7.158;2022-12-16T03:44:25;99761.00;;;-3.10
13570;BMP180;6856;51.460;7.158;2022-12-16T03:46:59;99733.00;;;-3.20
13570;BMP180;6856;51.460;7.158;2022-12-16T03:49:33;99759.00;;;-3.20
13570;BMP180;6856;51.460;7.158;2022-12-16T03:52:08;99763.00;;;-3.20
13570;BMP180;6856;51.460;7.158;2022-12-16T03:54:42;99770.00;;;-3.20
13570;BMP180;6856;51.460;7.158;2022-12-16T03:57:16;99758.00;;;-3.20
13570;BMP180;6856;51.460;7.158;2022-12-16T03:59:50;99768.00;;;-3.30
13570;BMP180;6856;51.460;7.158;2022-12-16T04:02:24;99768.00;;;-3.20
13570;BMP180;6856;51.460;7.158;2022-12-16T04:04:58;99769.00;;;-3.20
13570;BMP180;6856;51.460;7.158;2022-12-16T04:07:33;99764.00;;;-3.30
13570;BMP180;6856;51.460;7.158;2022-12-16T04:10:07;99749.00;;;-3.30
13570;BMP180;6856;51.460;7.158;2022-12-16T04:12:41;99766.00;;;-3.30
13570;BMP180;6856;51.460;7.158;2022-12-16T04:15:38;99768.00;;;-3.30
13570;BMP180;6856;51.460;7.158;2022-12-16T04:18:30;99769.00;;;-3.30
13570;BMP180;6856;51.460;7.158;2022-12-16T04:21:22;99770.00;;;-3.30
13570;BMP180;6856;51.460;7.158;2022-12-16T04:24:17;99774.00;;;-3.30
13570;BMP180;6856;51.460;7.158;2022-12-16T04:26:51;99772.00;;;-3.40
13570;BMP180;6856;51.460;7.158;2022-12-16T04:29:47;99766.00;;;-3.40
13570;BMP180;6856;51.460;7.158;2022-12-16T04:32:38;99760.00;;;-3.50
13570;BMP180;6856;51.460;7.158;2022-12-16T04:35:29;99778.00;;;-3.40
13570;BMP180;6856;51.460;7.158;2022-12-16T04:38:20;99782.00;;;-3.40
13570;BMP180;6856;51.460;7.158;2022-12-16T04:41:13;99790.00;;;-3.50
13570;BMP180;6856;51.460;7.158;2022-12-16T04:44:05;99789.00;;;-3.50
13570;BMP180;6856;51.460;7.158;2022-12-16T04:46:56;99764.00;;;-3.50
13570;BMP180;6856;51.460;7.158;2022-12-16T04:49:47;99795.00;;;-3.50
13570;BMP180;6856;51.460;7.158;2022-12-16T04:52:39;99791.00;;;-3.50
13570;BMP180;6856;51.460;7.158;2022-12-16T04:55:30;99790.00;;;-3.50
13570;BMP180;6856;51.460;7.158;2022-12-16T04:58:22;99802.00;;;-3.50
13570;BMP180;6856;51.460;7.158;2022-12-16T05:01:14;99798.00;;;-3.50
13570;BMP180;6856;51.460;7.158;2022-12-16T05:04:05;99807.00;;;-3.50
13570;BMP180;6856;51.460;7.158;2022-12-16T05:06:57;99818.00;;;-3.60
13570;BMP180;6856;51.460;7.158;2022-12-16T05:09:48;99823.00;;;-3.60
13570;BMP180;6856;51.460;7.158;2022-12-16T05:12:39;99827.00;;;-3.60
13570;BMP180;6856;51.460;7.158;2022-12-16T05:15:32;99832.00;;;-3.60
13570;BMP180;6856;51.460;7.158;2022-12-16T05:18:23;99824.00;;;-3.60
13570;BMP180;6856;51.460;7.158;2022-12-16T05:21:14;99819.00;;;-3.60
13570;BMP180;6856;51.460;7.158;2022-12-16T05:24:07;99829.00;;;-3.60
13570;BMP180;6856;51.460;7.158;2022-12-16T05:26:58;99828.00;;;-3.60
13570;BMP180;6856;51.460;7.158;2022-12-16T05:29:50;99844.00;;;-3.60
13570;BMP180;6856;51.460;7.158;2022-12-16T05:32:42;99844.00;;;-3.70
13570;BMP180;6856;51.460;7.158;2022-12-16T05:35:33;99851.00;;;-3.60
13570;BMP180;6856;51.460;7.158;2022-12-16T05:38:24;99848.00;;;-3.70
13570;BMP180;6856;51.460;7.158;2022-12-16T05:41:16;99862.00;;;-3.70
13570;BMP180;6856;51.460;7.158;2022-12-16T05:44:08;99864.00;;;-3.70
13570;BMP180;6856;51.460;7.158;2022-12-16T05:46:59;99851.00;;;-3.70
13570;BMP180;6856;51.460;7.158;2022-12-16T05:49:51;99876.00;;;-3.70
13570;BMP180;6856;51.460;7.158;2022-12-16T05:52:48;99883.00;;;-3.70
13570;BMP180;6856;51.460;7.158;2022-12-16T05:55:40;99871.00;;;-3.70
13570;BMP180;6856;51.460;7.158;2022-12-16T05:58:32;99876.00;;;-3.70
13570;BMP180;6856;51.460;7.158;2022-12-16T06:01:23;99883.00;;;-3.70
13570;BMP180;6856;51.460;7.158;2022-12-16T06:04:14;99896.00;;;-3.70
13570;BMP180;6856;51.460;7.158;2022-12-16T06:07:07;99904.00;;;-3.70
13570;BMP180;6856;51.460;7.158;2022-12-16T06:09:59;99895.00;;;-3.70
13570;BMP180;6856;51.460;7.158;2022-12-16T06:12:50;99894.00;;;-3.70
13570;BMP180;6856;51.460;7.158;2022-12-16T06:15:42;99888.00;;;-3.70
13570;BMP180;6856;51.460;7.158;2022-12-16T06:18:39;99893.00;;;-3.70
13570;BMP180;6856;51.460;7.158;2022-12-16T06:21:30;99898.00;;;-3.70
13570;BMP180;6856;51.460;7.158;2022-12-16T06:24:23;99901.00;;;-3.70
13570;BMP180;6856;51.460;7.158;2022-12-16T06:27:14;99903.00;;;-3.70
13570;BMP180;6856;51.460;7.158;2022-12-16T06:30:07;99909.00;;;-3.70
13570;BMP180;6856;51.460;7.158;2022-12-16T06:33:02;99914.00;;;-3.70
13570;BMP180;6856;51.460;7.158;2022-12-16T06:35:53;99923.00;;;-3.70
13570;BMP180;6856;51.460;7.158;2022-12-16T06:38:45;99927.00;;;-3.70
13570;BMP180;6856;51.460;7.158;2022-12-16T06:41:37;99919.00;;;-3.70
13570;BMP180;6856;51.460;7.158;2022-12-16T06:44:28;99926.00;;;-3.80
13570;BMP180;6856;51.460;7.158;2022-12-16T06:47:19;99920.00;;;-3.70
13570;BMP180;6856;51.460;7.158;2022-12-16T06:50:11;99925.00;;;-3.70
13570;BMP180;6856;51.460;7.158;2022-12-16T06:53:03;99930.00;;;-3.80
13570;BMP180;6856;51.460;7.158;2022-12-16T06:55:55;99940.00;;;-3.70
13570;BMP180;6856;51.460;7.158;2022-12-16T06:58:47;99942.00;;;-3.80
13570;BMP180;6856;51.460;7.158;2022-12-16T07:01:38;99944.00;;;-3.80
13570;BMP180;6856;51.460;7.158;2022-12-16T07:04:29;99959.00;;;-3.80
13570;BMP180;6856;51.460;7.158;2022-12-16T07:07:20;99958.00;;;-3.80
13570;BMP180;6856;51.460;7.158;2022-12-16T07:10:11;99964.00;;;-3.90
13570;BMP180;6856;51.460;7.158;2022-12-16T07:13:02;99976.00;;;-3.80
13570;BMP180;6856;51.460;7.158;2022-12-16T07:15:55;99969.00;;;-3.80
13570;BMP180;6856;51.460;7.158;2022-12-16T07:18:46;99973.00;;;-3.80
13570;BMP180;6856;51.460;7.158;2022-12-16T07:21:37;99954.00;;;-3.90
13570;BMP180;6856;51.460;7.158;2022-12-16T07:24:28;99988.00;;;-3.80
13570;BMP180;6856;51.460;7.158;2022-12-16T07:27:19;99984.00;;;-3.80
13570;BMP180;6856;51.460;7.158;2022-12-16T07:30:11;100000.00;;;-3.80
13570;BMP180;6856;51.460;7.158;2022-12-16T07:33:04;99999.00;;;-3.90
13570;BMP180;6856;51.460;7.158;2022-12-16T07:35:55;99998.00;;;-3.80
13570;BMP180;6856;51.460;7.158;2022-12-16T07:38:46;100023.00;;;-3.90
13570;BMP180;6856;51.460;7.158;2022-12-16T07:41:37;100015.00;;;-3.90
13570;BMP180;6856;51.460;7.158;2022-12-16T07:44:28;100020.00;;;-3.90
13570;BMP180;6856;51.460;7.158;2022-12-16T07:47:19;100010.00;;;-3.90
13570;BMP180;6856;51.460;7.158;2022-12-16T07:50:12;100017.00;;;-4.00
13570;BMP180;6856;51.460;7.158;2022-12-16T07:53:03;100039.00;;;-3.90
13570;BMP180;6856;51.460;7.158;2022-12-16T07:56:00;100032.00;;;-3.90
13570;BMP180;6856;51.460;7.158;2022-12-16T07:58:50;100034.00;;;-3.90
13570;BMP180;6856;51.460;7.158;2022-12-16T08:01:42;100039.00;;;-3.90
13570;BMP180;6856;51.460;7.158;2022-12-16T08:04:33;100024.00;;;-3.90
13570;BMP180;6856;51.460;7.158;2022-12-16T08:07:26;100042.00;;;-3.90
13570;BMP180;6856;51.460;7.158;2022-12-16T08:10:17;100046.00;;;-3.90
13570;BMP180;6856;51.460;7.158;2022-12-16T08:13:08;100045.00;;;-3.90
13570;BMP180;6856;51.460;7.158;2022-12-16T08:15:59;100048.00;;;-3.80
13570;BMP180;6856;51.460;7.158;2022-12-16T08:18:51;100069.00;;;-3.80
13570;BMP180;6856;51.460;7.158;2022-12-16T08:21:43;100073.00;;;-3.80
13570;BMP180;6856;51.460;7.158;2022-12-16T08:24:37;100066.00;;;-3.80
13570;BMP180;6856;51.460;7.158;2022-12-16T08:27:28;100070.00;;;-3.80
13570;BMP180;6856;51.460;7.158;2022-12-16T08:30:20;100065.00;;;-3.70
13570;BMP180;6856;51.460;7.158;2022-12-16T08:33:12;100079.00;;;-3.70
13570;BMP180;6856;51.460;7.158;2022-12-16T08:36:05;100079.00;;;-3.70
13570;BMP180;6856;51.460;7.158;2022-12-16T08:38:56;100070.00;;;-3.70
13570;BMP180;6856;51.460;7.158;2022-12-16T08:41:49;100083.00;;;-3.60
13570;BMP180;6856;51.460;7.158;2022-12-16T08:44:40;100085.00;;;-3.60
13570;BMP180;6856;51.460;7.158;2022-12-16T08:47:31;100098.00;;;-3.50
13570;BMP180;6856;51.460;7.158;2022-12-16T08:50:23;100067.00;;;-3.50
13570;BMP180;6856;51.460;7.158;2022-12-16T08:53:18;100089.00;;;-3.40
13570;BMP180;6856;51.460;7.158;2022-12-16T08:56:09;100082.00;;;-3.40
13570;BMP180;6856;51.460;7.158;2022-12-16T08:59:02;100083.00;;;-3.30
13570;BMP180;6856;51.460;7.158;2022-12-16T09:01:54;100108.00;;;-3.20
13570;BMP180;6856;51.460;7.158;2022-12-16T09:04:48;100111.00;;;-3.20
13570;BMP180;6856;51.460;7.158;2022-12-16T09:07:40;100111.00;;;-3.10
13570;BMP180;6856;51.460;7.158;2022-12-16T09:10:31;100117.00;;;-3.00
13570;BMP180;6856;51.460;7.158;2022-12-16T09:13:22;100119.00;;;-2.90
13570;BMP180;6856;51.460;7.158;2022-12-16T09:16:15;100122.00;;;-2.80
13570;BMP180;6856;51.460;7.158;2022-12-16T09:19:06;100127.00;;;-2.70
13570;BMP180;6856;51.460;7.158;2022-12-16T09:21:58;100134.00;;;-2.60
13570;BMP180;6856;51.460;7.158;2022-12-16T09:24:52;100126.00;;;-2.40
13570;BMP180;6856;51.460;7.158;2022-12-16T09:27:42;100141.00;;;-2.30
13570;BMP180;6856;51.460;7.158;2022-12-16T09:30:34;100135.00;;;-2.20
13570;BMP180;6856;51.460;7.158;2022-12-16T09:33:29;100155.00;;;-2.10
13570;BMP180;6856;51.460;7.158;2022-12-16T09:36:20;100142.00;;;-1.90
13570;BMP180;6856;51.460;7.158;2022-12-16T09:39:10;100148.00;;;-1.80
13570;BMP180;6856;51.460;7.158;2022-12-16T09:42:15;100164.00;;;-1.70
13570;BMP180;6856;51.460;7.158;2022-12-16T09:45:19;100164.00;;;-1.60
13570;BMP180;6856;51.460;7.158;2022-12-16T09:48:20;100176.00;;;-1.50
13570;BMP180;6856;51.460;7.158;2022-12-16T09:51:16;100164.00;;;-1.40
13570;BMP180;6856;51.460;7.158;2022-12-16T09:54:11;100164.00;;;-1.30
13570;BMP180;6856;51.460;7.158;2022-12-16T09:57:05;100154.00;;;-1.20
13570;BMP180;6856;51.460;7.158;2022-12-16T10:00:03;100145.00;;;-1.10
13570;BMP180;6856;51.460;7.158;2022-12-16T10:03:14;100165.00;;;-1.00
13570;BMP180;6856;51.460;7.158;2022-12-16T10:06:32;100162.00;;;-0.90
13570;BMP180;6856;51.460;7.158;2022-12-16T10:09:33;100183.00;;;-0.80
13570;BMP180;6856;51.460;7.158;2022-12-16T10:12:38;100183.00;;;-0.70
13570;BMP180;6856;51.460;7.158;2022-12-16T10:15:42;100176.00;;;-0.60
13570;BMP180;6856;51.460;7.158;2022-12-16T10:18:49;100189.00;;;-0.50
13570;BMP180;6856;51.460;7.158;2022-12-16T10:21:58;100190.00;;;-0.40
13570;BMP180;6856;51.460;7.158;2022-12-16T10:25:00;100195.00;;;-0.20
13570;BMP180;6856;51.460;7.158;2022-12-16T10:28:11;100196.00;;;0.00
13570;BMP180;6856;51.460;7.158;2022-12-16T10:31:14;100191.00;;;0.10
13570;BMP180;6856;51.460;7.158;2022-12-16T10:34:10;100206.00;;;0.20
13570;BMP180;6856;51.460;7.158;2022-12-16T10:37:11;100209.00;;;0.40
13570;BMP180;6856;51.460;7.158;2022-12-16T10:40:12;100208.00;;;0.50
13570;BMP180;6856;51.460;7.158;2022-12-16T10:43:11;100198.00;;;0.60
13570;BMP180;6856;51.460;7.158;2022-12-16T10:46:12;100205.00;;;0.80
13570;BMP180;6856;51.460;7.158;2022-12-16T10:49:12;100221.00;;;1.00
13570;BMP180;6856;51.460;7.158;2022-12-16T10:52:10;100211.00;;;1.10
13570;BMP180;6856;51.460;7.158;2022-12-16T10:55:13;100213.00;;;1.20
13570;BMP180;6856;51.460;7.158;2022-12-16T10:58:23;100216.00;;;1.30
13570;BMP180;6856;51.460;7.158;2022-12-16T11:01:21;100227.00;;;1.50
13570;BMP180;6856;51.460;7.158;2022-12-16T11:04:34;100191.00;;;1.60
13570;BMP180;6856;51.460;7.158;2022-12-16T11:07:33;100219.00;;;1.80
13570;BMP180;6856;51.460;7.158;2022-12-16T11:10:32;100221.00;;;1.90
13570;BMP180;6856;51.460;7.158;2022-12-16T11:13:27;100219.00;;;2.00
13570;BMP180;6856;51.460;7.158;2022-12-16T11:16:21;100228.00;;;2.10
13570;BMP180;6856;51.460;7.158;2022-12-16T11:19:21;100233.00;;;2.30
13570;BMP180;6856;51.460;7.158;2022-12-16T11:22:16;100224.00;;;2.30
13570;BMP180;6856;51.460;7.158;2022-12-16T11:25:21;100240.00;;;2.50
13570;BMP180;6856;51.460;7.158;2022-12-16T11:28:18;100238.00;;;2.60
13570;BMP180;6856;51.460;7.158;2022-12-16T11:31:14;100239.00;;;2.70
13570;BMP180;6856;51.460;7.158;2022-12-16T11:34:08;100237.00;;;2.80
13570;BMP180;6856;51.460;7.158;2022-12-16T11:37:00;100237.00;;;2.70
13570;BMP180;6856;51.460;7.158;2022-12-16T11:39:52;100236.00;;;3.00
13570;BMP180;6856;51.460;7.158;2022-12-16T11:42:45;100240.00;;;3.00
13570;BMP180;6856;51.460;7.158;2022-12-16T11:45:45;100240.00;;;3.10
13570;BMP180;6856;51.460;7.158;2022-12-16T11:48:43;100243.00;;;3.20
13570;BMP180;6856;51.460;7.158;2022-12-16T11:51:38;100250.00;;;3.20
13570;BMP180;6856;51.460;7.158;2022-12-16T11:55:00;100240.00;;;3.30
13570;BMP180;6856;51.460;7.158;2022-12-16T11:58:26;100246.00;;;3.40
13570;BMP180;6856;51.460;7.158;2022-12-16T12:01:24;100247.00;;;3.50
13570;BMP180;6856;51.460;7.158;2022-12-16T12:04:17;100242.00;;;3.60
13570;BMP180;6856;51.460;7.158;2022-12-16T12:07:24;100247.00;;;3.70
13570;BMP180;6856;51.460;7.158;2022-12-16T12:10:56;100240.00;;;3.70
13570;BMP180;6856;51.460;7.158;2022-12-16T12:14:04;100252.00;;;3.80
13570;BMP180;6856;51.460;7.158;2022-12-16T12:17:16;100243.00;;;3.80
13570;BMP180;6856;51.460;7.158;2022-12-16T12:20:37;100257.00;;;3.90
13570;BMP180;6856;51.460;7.158;2022-12-16T12:23:45;100262.00;;;3.90
13570;BMP180;6856;51.460;7.158;2022-12-16T12:26:49;100257.00;;;4.00
13570;BMP180;6856;51.460;7.158;2022-12-16T12:30:01;100265.00;;;4.00
13570;BMP180;6856;51.460;7.158;2022-12-16T12:33:13;100256.00;;;4.00
13570;BMP180;6856;51.460;7.158;2022-12-16T12:36:27;100249.00;;;4.00
13570;BMP180;6856;51.460;7.158;2022-12-16T12:39:26;100265.00;;;4.10
13570;BMP180;6856;51.460;7.158;2022-12-16T12:42:32;100274.00;;;4.10
13570;BMP180;6856;51.460;7.158;2022-12-16T12:45:47;100272.00;;;4.10
13570;BMP180;6856;51.460;7.158;2022-12-16T12:48:51;100273.00;;;4.00
13570;BMP180;6856;51.460;7.158;2022-12-16T12:52:00;100256.00;;;4.00
13570;BMP180;6856;51.460;7.158;2022-12-16T12:54:59;100273.00;;;4.00
13570;BMP180;6856;51.460;7.158;2022-12-16T12:57:56;100278.00;;;4.00
13570;BMP180;6856;51.460;7.158;2022-12-16T13:00:55;100270.00;;;4.00
13570;BMP180;6856;51.460;7.158;2022-12-16T13:03:54;100267.00;;;4.00
13570;BMP180;6856;51.460;7.158;2022-12-16T13:06:48;100258.00;;;4.00
13570;BMP180;6856;51.460;7.158;2022-12-16T13:09:41;100276.00;;;4.00
13570;BMP180;6856;51.460;7.158;2022-12-16T13:12:35;100278.00;;;4.00
13570;BMP180;6856;51.460;7.158;2022-12-16T13:15:35;100260.00;;;4.00
13570;BMP180;6856;51.460;7.158;2022-12-16T13:18:30;100280.00;;;4.10
13570;BMP180;6856;51.460;7.158;2022-12-16T13:21:44;100298.00;;;4.10
13570;BMP180;6856;51.460;7.158;2022-12-16T13:24:44;100288.00;;;4.10
13570;BMP180;6856;51.460;7.158;2022-12-16T13:27:54;100287.00;;;4.20
13570;BMP180;6856;51.460;7.158;2022-12-16T13:31:03;100296.00;;;4.20
13570;BMP180;6856;51.460;7.158;2022-12-16T13:34:22;100294.00;;;4.30
13570;BMP180;6856;51.460;7.158;2022-12-16T13:37:23;100293.00;;;4.30
13570;BMP180;6856;51.460;7.158;2022-12-16T13:40:21;100309.00;;;4.40
13570;BMP180;6856;51.460;7.158;2022-12-16T13:43:51;100312.00;;;4.40
13570;BMP180;6856;51.460;7.158;2022-12-16T13:46:48;100307.00;;;4.50
13570;BMP180;6856;51.460;7.158;2022-12-16T13:49:44;100305.00;;;4.50
13570;BMP180;6856;51.460;7.158;2022-12-16T13:52:47;100318.00;;;4.60
13570;BMP180;6856;51.460;7.158;2022-12-16T13:55:53;100335.00;;;4.60
13570;BMP180;6856;51.460;7.158;2022-12-16T13:58:50;100333.00;;;4.60
13570;BMP180;6856;51.460;7.158;2022-12-16T14:01:47;100324.00;;;4.70
13570;BMP180;6856;51.460;7.158;2022-12-16T14:04:45;100341.00;;;4.70
13570;BMP180;6856;51.460;7.158;2022-12-16T14:07:39;100335.00;;;4.80
13570;BMP180;6856;51.460;7.158;2022-12-16T14:10:34;100340.00;;;4.80
13570;BMP180;6856;51.460;7.158;2022-12-16T14:13:35;100339.00;;;4.80
13570;BMP180;6856;51.460;7.158;2022-12-16T14:16:41;100315.00;;;4.80
13570;BMP180;6856;51.460;7.158;2022-12-16T14:19:52;100347.00;;;4.80
13570;BMP180;6856;51.460;7.158;2022-12-16T14:22:52;100354.00;;;4.80
13570;BMP180;6856;51.460;7.158;2022-12-16T14:26:12;100365.00;;;4.70
13570;BMP180;6856;51.460;7.158;2022-12-16T14:29:19;100362.00;;;4.70
13570;BMP180;6856;51.460;7.158;2022-12-16T14:32:24;100363.00;;;4.70
13570;BMP180;6856;51.460;7.158;2022-12-16T14:35:20;100365.00;;;4.60
13570;BMP180;6856;51.460;7.158;2022-12-16T14:38:25;100378.00;;;4.70
13570;BMP180;6856;51.460;7.158;2022-12-16T14:41:20;100389.00;;;4.60
13570;BMP180;6856;51.460;7.158;2022-12-16T14:44:17;100389.00;;;4.60
13570;BMP180;6856;51.460;7.158;2022-12-16T14:47:16;100389.00;;;4.60
13570;BMP180;6856;51.460;7.158;2022-12-16T14:50:20;100388.00;;;4.60
13570;BMP180;6856;51.460;7.158;2022-12-16T14:53:16;100393.00;;;4.50
13570;BMP180;6856;51.460;7.158;2022-12-16T14:56:20;100398.00;;;4.50
13570;BMP180;6856;51.460;7.158;2022-12-16T14:59:13;100392.00;;;4.40
13570;BMP180;6856;51.460;7.158;2022-12-16T15:02:18;100413.00;;;4.40
13570;BMP180;6856;51.460;7.158;2022-12-16T15:05:17;100415.00;;;4.40
13570;BMP180;6856;51.460;7.158;2022-12-16T15:08:11;100414.00;;;4.30
13570;BMP180;6856;51.460;7.158;2022-12-16T15:11:07;100417.00;;;4.30
13570;BMP180;6856;51.460;7.158;2022-12-16T15:14:02;100416.00;;;4.30
13570;BMP180;6856;51.460;7.158;2022-12-16T15:16:54;100418.00;;;4.20
13570;BMP180;6856;51.460;7.158;2022-12-16T15:19:49;100434.00;;;4.10
13570;BMP180;6856;51.460;7.158;2022-12-16T15:22:50;100443.00;;;4.10
13570;BMP180;6856;51.460;7.158;2022-12-16T15:25:49;100445.00;;;4.10
13570;BMP180;6856;51.460;7.158;2022-12-16T15:28:43;100445.00;;;4.00
13570;BMP180;6856;51.460;7.158;2022-12-16T15:31:38;100458.00;;;4.00
13570;BMP180;6856;51.460;7.158;2022-12-16T15:34:46;100468.00;;;3.90
13570;BMP180;6856;51.460;7.158;2022-12-16T15:37:40;100446.00;;;3.80
13570;BMP180;6856;51.460;7.158;2022-12-16T15:40:39;100457.00;;;3.80
13570;BMP180;6856;51.460;7.158;2022-12-16T15:43:32;100459.00;;;3.70
13570;BMP180;6856;51.460;7.158;2022-12-16T15:46:29;100462.00;;;3.70
13570;BMP180;6856;51.460;7.158;2022-12-16T15:49:38;100478.00;;;3.60
13570;BMP180;6856;51.460;7.158;2022-12-16T15:52:38;100480.00;;;3.50
13570;BMP180;6856;51.460;7.158;2022-12-16T15:55:32;100488.00;;;3.50
13570;BMP180;6856;51.460;7.158;2022-12-16T15:58:33;100492.00;;;3.50
13570;BMP180;6856;51.460;7.158;2022-12-16T16:01:27;100492.00;;;3.50
13570;BMP180;6856;51.460;7.158;2022-12-16T16:04:22;100490.00;;;3.40
13570;BMP180;6856;51.460;7.158;2022-12-16T16:07:17;100489.00;;;3.40
13570;BMP180;6856;51.460;7.158;2022-12-16T16:10:16;100496.00;;;3.30
13570;BMP180;6856;51.460;7.158;2022-12-16T16:13:09;100499.00;;;3.30
13570;BMP180;6856;51.460;7.158;2022-12-16T16:16:02;100496.00;;;3.30
13570;BMP180;6856;51.460;7.158;2022-12-16T16:18:54;100511.00;;;3.30
13570;BMP180;6856;51.460;7.158;2022-12-16T16:21:46;100505.00;;;3.30
13570;BMP180;6856;51.460;7.158;2022-12-16T16:24:38;100512.00;;;3.30
13570;BMP180;6856;51.460;7.158;2022-12-16T16:27:32;100521.00;;;3.20
13570;BMP180;6856;51.460;7.158;2022-12-16T16:30:23;100530.00;;;3.20
13570;BMP180;6856;51.460;7.158;2022-12-16T16:33:15;100529.00;;;3.10
13570;BMP180;6856;51.460;7.158;2022-12-16T16:36:13;100528.00;;;3.10
13570;BMP180;6856;51.460;7.158;2022-12-16T16:39:05;100533.00;;;3.00
13570;BMP180;6856;51.460;7.158;2022-12-16T16:41:57;100534.00;;;3.00